sensor_id;sensor_type;location;lat;lon;timestamp;pressure;altitude;pressure_sealevel;temperature;humidity
4273;BME280;63887;53.656;9.810;2023-03-26T00:02:19;100193.59;;;8.07;92.54
4273;BME280;63887;53.656;9.810;2023-03-26T00:04:45;100194.06;;;7.98;92.98
4273;BME280;63887;53.656;9.810;2023-03-26T00:07:12;100199.97;;;8.01;92.90
4273;BME280;63887;53.656;9.810;2023-03-26T00:09:39;100202.06;;;7.95;93.51
4273;BME280;63887;53.656;9.810;2023-03-26T00:12:05;100210.13;;;7.74;94.58
4273;BME280;63887;53.656;9.810;2023-03-26T00:14:32;100211.59;;;7.63;95.65
4273;BME280;63887;53.656;9.810;2023-03-26T00:16:59;100206.50;;;7.77;95.78
4273;BME280;63887;53.656;9.810;2023-03-26T00:19:27;100206.19;;;7.66;96.47
4273;BME280;63887;53.656;9.810;2023-03-26T00:21:54;100220.41;;;7.60;96.48
4273;BME280;63887;53.656;9.810;2023-03-26T00:24:21;100225.69;;;7.76;95.66
4273;BME280;63887;53.656;9.810;2023-03-26T00:26:54;100234.59;;;7.72;96.30
4273;BME280;63887;53.656;9.810;2023-03-26T00:29:21;100236.22;;;7.57;96.62
4273;BME280;63887;53.656;9.810;2023-03-26T00:31:49;100248.09;;;7.80;95.98
4273;BME280;63887;53.656;9.810;2023-03-26T00:34:15;100241.75;;;7.51;96.16
4273;BME280;63887;53.656;9.810;2023-03-26T00:36:43;100242.75;;;7.48;96.46
4273;BME280;63887;53.656;9.810;2023-03-26T00:39:11;100248.94;;;7.81;95.38
4273;BME280;63887;53.656;9.810;2023-03-26T00:41:38;100252.72;;;7.75;94.51
4273;BME280;63887;53.656;9.810;2023-03-26T00:44:08;100247.56;;;7.56;95.05
4273;BME280;63887;53.656;9.810;2023-03-26T00:46:34;100254.78;;;7.68;94.88
4273;BME280;63887;53.656;9.810;2023-03-26T00:49:01;100256.25;;;7.57;95.56
4273;BME280;63887;53.656;9.810;2023-03-26T00:51:28;100243.59;;;7.66;95.60
4273;BME280;63887;53.656;9.810;2023-03-26T00:53:57;100243.25;;;7.72;95.42
4273;BME280;63887;53.656;9.810;2023-03-26T00:56:23;100250.91;;;7.60;95.20
4273;BME280;63887;53.656;9.810;2023-03-26T00:58:50;100253.56;;;7.75;95.17
4273;BME280;63887;53.656;9.810;2023-03-26T01:01:18;100266.41;;;7.63;94.92
4273;BME280;63887;53.656;9.810;2023-03-26T01:03:51;100274.06;;;7.66;94.68
4273;BME280;63887;53.656;9.810;2023-03-26T01:06:25;100277.06;;;7.75;92.46
4273;BME280;63887;53.656;9.810;2023-03-26T01:09:01;100269.69;;;7.49;93.35
4273;BME280;63887;53.656;9.810;2023-03-26T01:11:31;100277.28;;;7.54;93.44
4273;BME280;63887;53.656;9.810;2023-03-26T01:14:00;100284.94;;;7.39;93.86
4273;BME280;63887;53.656;9.810;2023-03-26T01:16:33;100285.50;;;7.46;93.67
4273;BME280;63887;53.656;9.810;2023-03-26T01:19:01;100292.78;;;7.39;92.53
4273;BME280;63887;53.656;9.810;2023-03-26T01:21:28;100298.56;;;7.27;93.12
4273;BME280;63887;53.656;9.810;2023-03-26T01:23:58;100296.44;;;7.18;92.92
4273;BME280;63887;53.656;9.810;2023-03-26T01:26:39;100299.00;;;7.01;93.39
4273;BME280;63887;53.656;9.810;2023-03-26T01:29:13;100292.22;;;7.15;93.40
4273;BME280;63887;53.656;9.810;2023-03-26T01:31:49;100303.09;;;7.24;92.00
4273;BME280;63887;53.656;9.810;2023-03-26T01:34:21;100298.97;;;7.20;92.46
4273;BME280;63887;53.656;9.810;2023-03-26T01:36:57;100305.38;;;7.31;92.51
4273;BME280;63887;53.656;9.810;2023-03-26T01:39:34;100315.56;;;7.00;92.82
4273;BME280;63887;53.656;9.810;2023-03-26T01:42:08;100308.00;;;6.94;94.66
4273;BME280;63887;53.656;9.810;2023-03-26T01:44:40;100309.06;;;7.08;93.64
4273;BME280;63887;53.656;9.810;2023-03-26T01:47:10;100315.22;;;6.88;94.49
4273;BME280;63887;53.656;9.810;2023-03-26T01:49:37;100315.63;;;6.98;93.86
4273;BME280;63887;53.656;9.810;2023-03-26T01:52:09;100316.91;;;6.90;93.91
4273;BME280;63887;53.656;9.810;2023-03-26T01:54:39;100312.59;;;7.07;94.62
4273;BME280;63887;53.656;9.810;2023-03-26T01:57:10;100309.09;;;6.71;94.67
4273;BME280;63887;53.656;9.810;2023-03-26T01:59:52;100315.63;;;6.98;94.58
4273;BME280;63887;53.656;9.810;2023-03-26T02:02:28;100315.09;;;6.73;95.16
4273;BME280;63887;53.656;9.810;2023-03-26T02:05:04;100319.38;;;6.93;94.83
4273;BME280;63887;53.656;9.810;2023-03-26T02:07:37;100311.75;;;6.69;95.30
4273;BME280;63887;53.656;9.810;2023-03-26T02:10:10;100302.84;;;7.11;94.30
4273;BME280;63887;53.656;9.810;2023-03-26T02:12:38;100312.69;;;7.23;91.74
4273;BME280;63887;53.656;9.810;2023-03-26T02:15:06;100304.41;;;7.15;92.04
4273;BME280;63887;53.656;9.810;2023-03-26T02:17:33;100316.69;;;6.94;92.93
4273;BME280;63887;53.656;9.810;2023-03-26T02:20:00;100310.53;;;6.95;92.76
4273;BME280;63887;53.656;9.810;2023-03-26T02:22:35;100308.38;;;6.67;94.49
4273;BME280;63887;53.656;9.810;2023-03-26T02:25:08;100312.59;;;6.88;93.77
4273;BME280;63887;53.656;9.810;2023-03-26T02:27:34;100306.63;;;6.86;93.48
4273;BME280;63887;53.656;9.810;2023-03-26T02:30:01;100312.47;;;6.92;93.52
4273;BME280;63887;53.656;9.810;2023-03-26T02:32:28;100317.72;;;7.09;93.14
4273;BME280;63887;53.656;9.810;2023-03-26T02:34:54;100313.69;;;7.21;89.65
4273;BME280;63887;53.656;9.810;2023-03-26T02:37:21;100316.97;;;7.07;90.54
4273;BME280;63887;53.656;9.810;2023-03-26T02:39:47;100327.72;;;7.18;90.45
4273;BME280;63887;53.656;9.810;2023-03-26T02:42:15;100334.34;;;7.25;90.08
4273;BME280;63887;53.656;9.810;2023-03-26T02:44:41;100322.41;;;7.02;90.28
4273;BME280;63887;53.656;9.810;2023-03-26T02:47:08;100330.78;;;6.90;90.32
4273;BME280;63887;53.656;9.810;2023-03-26T02:49:34;100331.47;;;6.94;90.74
4273;BME280;63887;53.656;9.810;2023-03-26T02:52:01;100333.47;;;6.70;91.24
4273;BME280;63887;53.656;9.810;2023-03-26T02:54:30;100334.78;;;6.41;92.85
4273;BME280;63887;53.656;9.810;2023-03-26T02:56:57;100330.41;;;6.60;92.22
4273;BME280;63887;53.656;9.810;2023-03-26T02:59:25;100329.28;;;6.66;91.35
4273;BME280;63887;53.656;9.810;2023-03-26T03:01:51;100335.72;;;6.77;90.69
4273;BME280;63887;53.656;9.810;2023-03-26T03:04:18;100329.88;;;6.33;93.26
4273;BME280;63887;53.656;9.810;2023-03-26T03:06:45;100329.59;;;6.39;92.45
4273;BME280;63887;53.656;9.810;2023-03-26T03:09:17;100327.84;;;6.40;92.16
4273;BME280;63887;53.656;9.810;2023-03-26T03:11:44;100329.13;;;6.50;92.68
4273;BME280;63887;53.656;9.810;2023-03-26T03:14:10;100322.31;;;6.66;91.92
4273;BME280;63887;53.656;9.810;2023-03-26T03:16:38;100321.91;;;6.56;92.21
4273;BME280;63887;53.656;9.810;2023-03-26T03:19:05;100322.13;;;6.32;92.94
4273;BME280;63887;53.656;9.810;2023-03-26T03:21:31;100319.16;;;6.20;93.91
4273;BME280;63887;53.656;9.810;2023-03-26T03:23:58;100323.63;;;6.37;93.31
4273;BME280;63887;53.656;9.810;2023-03-26T03:26:24;100317.41;;;6.01;94.28
4273;BME280;63887;53.656;9.810;2023-03-26T03:28:54;100320.84;;;6.21;94.43
4273;BME280;63887;53.656;9.810;2023-03-26T03:31:22;100321.44;;;6.28;93.77
4273;BME280;63887;53.656;9.810;2023-03-26T03:33:50;100324.53;;;6.36;93.35
4273;BME280;63887;53.656;9.810;2023-03-26T03:36:21;100318.91;;;6.06;94.48
4273;BME280;63887;53.656;9.810;2023-03-26T03:38:49;100313.56;;;6.09;94.03
4273;BME280;63887;53.656;9.810;2023-03-26T03:41:15;100316.16;;;6.30;93.70
4273;BME280;63887;53.656;9.810;2023-03-26T03:43:42;100314.94;;;6.18;93.31
4273;BME280;63887;53.656;9.810;2023-03-26T03:46:09;100320.53;;;6.29;94.76
4273;BME280;63887;53.656;9.810;2023-03-26T03:48:35;100320.41;;;6.12;94.17
4273;BME280;63887;53.656;9.810;2023-03-26T03:51:05;100327.31;;;6.13;94.43
4273;BME280;63887;53.656;9.810;2023-03-26T03:53:31;100322.09;;;6.13;93.26
4273;BME280;63887;53.656;9.810;2023-03-26T03:56:01;100317.25;;;6.24;92.12
4273;BME280;63887;53.656;9.810;2023-03-26T03:58:28;100319.81;;;6.25;92.68
4273;BME280;63887;53.656;9.810;2023-03-26T04:00:55;100318.34;;;6.39;92.49
4273;BME280;63887;53.656;9.810;2023-03-26T04:03:25;100320.44;;;6.31;91.17
4273;BME280;63887;53.656;9.810;2023-03-26T04:05:53;100316.53;;;6.41;90.03
4273;BME280;63887;53.656;9.810;2023-03-26T04:08:21;100317.06;;;6.28;90.04
4273;BME280;63887;53.656;9.810;2023-03-26T04:10:49;100319.59;;;6.30;90.44
4273;BME280;63887;53.656;9.810;2023-03-26T04:13:16;100314.88;;;6.38;88.64
4273;BME280;63887;53.656;9.810;2023-03-26T04:15:43;100318.47;;;6.36;88.41
4273;BME280;63887;53.656;9.810;2023-03-26T04:18:09;100312.03;;;6.44;86.26
4273;BME280;63887;53.656;9.810;2023-03-26T04:20:36;100320.22;;;6.16;87.58
4273;BME280;63887;53.656;9.810;2023-03-26T04:23:03;100318.25;;;6.21;87.99
4273;BME280;63887;53.656;9.810;2023-03-26T04:25:31;100318.84;;;6.28;85.41
4273;BME280;63887;53.656;9.810;2023-03-26T04:27:59;100325.31;;;6.38;85.89
4273;BME280;63887;53.656;9.810;2023-03-26T04:30:31;100329.56;;;6.41;86.70
4273;BME280;63887;53.656;9.810;2023-03-26T04:32:58;100335.88;;;6.35;85.28
4273;BME280;63887;53.656;9.810;2023-03-26T04:35:30;100334.63;;;6.44;86.23
4273;BME280;63887;53.656;9.810;2023-03-26T04:37:59;100314.19;;;6.35;86.19
4273;BME280;63887;53.656;9.810;2023-03-26T04:40:26;100317.75;;;6.13;87.36
4273;BME280;63887;53.656;9.810;2023-03-26T04:42:56;100317.34;;;6.02;89.12
4273;BME280;63887;53.656;9.810;2023-03-26T04:45:24;100320.41;;;5.91;88.62
4273;BME280;63887;53.656;9.810;2023-03-26T04:47:50;100314.66;;;5.83;88.59
4273;BME280;63887;53.656;9.810;2023-03-26T04:50:17;100319.94;;;5.82;90.04
4273;BME280;63887;53.656;9.810;2023-03-26T04:52:43;100317.84;;;5.48;91.21
4273;BME280;63887;53.656;9.810;2023-03-26T04:55:16;100312.63;;;5.69;89.81
4273;BME280;63887;53.656;9.810;2023-03-26T04:57:49;100309.19;;;5.69;89.98
4273;BME280;63887;53.656;9.810;2023-03-26T05:00:20;100310.13;;;5.46;90.47
4273;BME280;63887;53.656;9.810;2023-03-26T05:02:47;100303.56;;;5.37;91.18
4273;BME280;63887;53.656;9.810;2023-03-26T05:05:15;100312.72;;;5.46;92.58
4273;BME280;63887;53.656;9.810;2023-03-26T05:07:41;100312.97;;;5.82;90.35
4273;BME280;63887;53.656;9.810;2023-03-26T05:10:11;100313.69;;;5.65;90.45
4273;BME280;63887;53.656;9.810;2023-03-26T05:12:39;100308.50;;;5.44;90.68
4273;BME280;63887;53.656;9.810;2023-03-26T05:15:06;100315.88;;;5.32;92.70
4273;BME280;63887;53.656;9.810;2023-03-26T05:17:34;100318.41;;;5.34;92.98
4273;BME280;63887;53.656;9.810;2023-03-26T05:20:09;100329.19;;;5.25;93.13
4273;BME280;63887;53.656;9.810;2023-03-26T05:22:41;100327.91;;;5.57;92.97
4273;BME280;63887;53.656;9.810;2023-03-26T05:25:07;100317.84;;;5.69;91.51
4273;BME280;63887;53.656;9.810;2023-03-26T05:27:34;100320.78;;;5.82;90.08
4273;BME280;63887;53.656;9.810;2023-03-26T05:30:01;100310.75;;;5.73;90.97
4273;BME280;63887;53.656;9.810;2023-03-26T05:32:29;100324.03;;;6.08;89.64
4273;BME280;63887;53.656;9.810;2023-03-26T05:34:57;100327.84;;;6.01;88.78
4273;BME280;63887;53.656;9.810;2023-03-26T05:37:23;100327.63;;;5.63;91.61
4273;BME280;63887;53.656;9.810;2023-03-26T05:39:52;100319.31;;;5.75;90.31
4273;BME280;63887;53.656;9.810;2023-03-26T05:42:18;100324.59;;;5.95;90.01
4273;BME280;63887;53.656;9.810;2023-03-26T05:44:45;100332.78;;;5.64;91.01
4273;BME280;63887;53.656;9.810;2023-03-26T05:47:11;100328.69;;;5.79;91.75
4273;BME280;63887;53.656;9.810;2023-03-26T05:49:38;100337.41;;;5.78;91.79
4273;BME280;63887;53.656;9.810;2023-03-26T05:52:06;100331.75;;;5.89;89.95
4273;BME280;63887;53.656;9.810;2023-03-26T05:54:32;100338.63;;;5.91;90.74
4273;BME280;63887;53.656;9.810;2023-03-26T05:56:59;100335.72;;;5.99;90.97
4273;BME280;63887;53.656;9.810;2023-03-26T05:59:25;100337.97;;;6.07;88.57
4273;BME280;63887;53.656;9.810;2023-03-26T06:01:52;100346.88;;;6.21;89.22
4273;BME280;63887;53.656;9.810;2023-03-26T06:04:18;100343.72;;;6.15;87.93
4273;BME280;63887;53.656;9.810;2023-03-26T06:06:45;100340.44;;;6.30;87.29
4273;BME280;63887;53.656;9.810;2023-03-26T06:09:13;100340.19;;;6.16;90.16
4273;BME280;63887;53.656;9.810;2023-03-26T06:11:39;100339.00;;;6.23;89.13
4273;BME280;63887;53.656;9.810;2023-03-26T06:14:06;100339.47;;;6.33;88.52
4273;BME280;63887;53.656;9.810;2023-03-26T06:16:32;100345.13;;;6.42;87.74
4273;BME280;63887;53.656;9.810;2023-03-26T06:18:59;100347.81;;;6.60;85.58
4273;BME280;63887;53.656;9.810;2023-03-26T06:21:26;100347.97;;;6.75;84.89
4273;BME280;63887;53.656;9.810;2023-03-26T06:23:52;100348.66;;;6.60;86.04
4273;BME280;63887;53.656;9.810;2023-03-26T06:26:20;100351.56;;;6.92;84.64
4273;BME280;63887;53.656;9.810;2023-03-26T06:28:47;100349.59;;;6.97;84.17
4273;BME280;63887;53.656;9.810;2023-03-26T06:31:13;100351.28;;;6.79;83.50
4273;BME280;63887;53.656;9.810;2023-03-26T06:33:41;100358.94;;;6.63;85.06
4273;BME280;63887;53.656;9.810;2023-03-26T06:36:08;100353.31;;;6.91;84.52
4273;BME280;63887;53.656;9.810;2023-03-26T06:38:34;100365.09;;;6.81;83.73
4273;BME280;63887;53.656;9.810;2023-03-26T06:41:01;100360.56;;;6.66;83.42
4273;BME280;63887;53.656;9.810;2023-03-26T06:43:29;100363.22;;;6.84;81.68
4273;BME280;63887;53.656;9.810;2023-03-26T06:45:58;100366.78;;;6.82;80.27
4273;BME280;63887;53.656;9.810;2023-03-26T06:48:24;100366.22;;;6.94;80.37
4273;BME280;63887;53.656;9.810;2023-03-26T06:50:51;100368.59;;;6.80;81.13
4273;BME280;63887;53.656;9.810;2023-03-26T06:53:17;100363.00;;;6.89;80.59
4273;BME280;63887;53.656;9.810;2023-03-26T06:55:43;100366.91;;;6.79;78.10
4273;BME280;63887;53.656;9.810;2023-03-26T06:58:11;100367.28;;;6.90;77.54
4273;BME280;63887;53.656;9.810;2023-03-26T07:00:39;100371.09;;;7.02;77.42
4273;BME280;63887;53.656;9.810;2023-03-26T07:03:06;100370.19;;;7.03;77.07
4273;BME280;63887;53.656;9.810;2023-03-26T07:05:33;100362.75;;;7.12;75.46
4273;BME280;63887;53.656;9.810;2023-03-26T07:07:59;100370.44;;;6.97;75.10
4273;BME280;63887;53.656;9.810;2023-03-26T07:10:27;100371.72;;;6.88;75.28
4273;BME280;63887;53.656;9.810;2023-03-26T07:12:53;100377.09;;;6.85;74.38
4273;BME280;63887;53.656;9.810;2023-03-26T07:15:19;100375.88;;;6.92;74.91
4273;BME280;63887;53.656;9.810;2023-03-26T07:17:47;100377.47;;;7.13;70.39
4273;BME280;63887;53.656;9.810;2023-03-26T07:20:14;100376.94;;;6.88;70.72
4273;BME280;63887;53.656;9.810;2023-03-26T07:22:41;100370.88;;;7.06;70.44
4273;BME280;63887;53.656;9.810;2023-03-26T07:25:09;100373.31;;;7.28;69.10
4273;BME280;63887;53.656;9.810;2023-03-26T07:27:41;100380.66;;;7.20;69.97
4273;BME280;63887;53.656;9.810;2023-03-26T07:30:13;100376.84;;;7.46;69.07
4273;BME280;63887;53.656;9.810;2023-03-26T07:32:48;100386.50;;;7.44;69.41
4273;BME280;63887;53.656;9.810;2023-03-26T07:35:20;100370.94;;;7.60;69.74
4273;BME280;63887;53.656;9.810;2023-03-26T07:38:02;100371.50;;;7.66;68.22
4273;BME280;63887;53.656;9.810;2023-03-26T07:40:45;100369.03;;;7.63;67.44
4273;BME280;63887;53.656;9.810;2023-03-26T07:43:24;100373.50;;;7.42;67.69
4273;BME280;63887;53.656;9.810;2023-03-26T07:45:56;100364.41;;;7.68;65.12
4273;BME280;63887;53.656;9.810;2023-03-26T07:48:26;100367.84;;;7.52;65.02
4273;BME280;63887;53.656;9.810;2023-03-26T07:50:55;100376.13;;;7.42;66.84
4273;BME280;63887;53.656;9.810;2023-03-26T07:53:22;100370.72;;;7.64;66.02
4273;BME280;63887;53.656;9.810;2023-03-26T07:55:52;100372.97;;;7.89;63.42
4273;BME280;63887;53.656;9.810;2023-03-26T07:58:38;100372.16;;;7.53;62.90
4273;BME280;63887;53.656;9.810;2023-03-26T08:01:12;100379.25;;;7.68;63.95
4273;BME280;63887;53.656;9.810;2023-03-26T08:04:17;100373.59;;;7.58;66.16
4273;BME280;63887;53.656;9.810;2023-03-26T08:06:52;100373.94;;;7.87;62.93
4273;BME280;63887;53.656;9.810;2023-03-26T08:09:26;100380.41;;;7.80;58.47
4273;BME280;63887;53.656;9.810;2023-03-26T08:11:56;100385.47;;;7.65;61.08
4273;BME280;63887;53.656;9.810;2023-03-26T08:14:32;100381.72;;;7.88;60.74
4273;BME280;63887;53.656;9.810;2023-03-26T08:17:09;100381.72;;;7.88;60.01
4273;BME280;63887;53.656;9.810;2023-03-26T08:19:43;100376.97;;;7.96;60.19
4273;BME280;63887;53.656;9.810;2023-03-26T08:22:14;100382.63;;;7.70;65.54
4273;BME280;63887;53.656;9.810;2023-03-26T08:24:49;100376.13;;;7.78;63.58
4273;BME280;63887;53.656;9.810;2023-03-26T08:27:22;100371.56;;;8.17;62.44
4273;BME280;63887;53.656;9.810;2023-03-26T08:29:56;100381.66;;;8.24;61.52
4273;BME280;63887;53.656;9.810;2023-03-26T08:32:27;100373.50;;;7.96;61.31
4273;BME280;63887;53.656;9.810;2023-03-26T08:34:55;100375.50;;;8.25;63.60
4273;BME280;63887;53.656;9.810;2023-03-26T08:37:24;100371.19;;;8.24;62.52
4273;BME280;63887;53.656;9.810;2023-03-26T08:39:51;100373.97;;;8.21;60.95
4273;BME280;63887;53.656;9.810;2023-03-26T08:42:38;100374.97;;;8.36;62.20
4273;BME280;63887;53.656;9.810;2023-03-26T08:45:28;100383.28;;;7.92;64.63
4273;BME280;63887;53.656;9.810;2023-03-26T08:51:32;100386.25;;;8.54;58.03
4273;BME280;63887;53.656;9.810;2023-03-26T08:54:29;100386.13;;;8.73;61.19
4273;BME280;63887;53.656;9.810;2023-03-26T08:57:20;100383.59;;;8.71;58.80
4273;BME280;63887;53.656;9.810;2023-03-26T09:00:01;100375.19;;;8.49;62.67
4273;BME280;63887;53.656;9.810;2023-03-26T09:03:09;100371.91;;;8.78;59.97
4273;BME280;63887;53.656;9.810;2023-03-26T09:06:03;100379.03;;;8.75;57.40
4273;BME280;63887;53.656;9.810;2023-03-26T09:15:21;100370.81;;;7.97;62.68
4273;BME280;63887;53.656;9.810;2023-03-26T09:18:16;100376.63;;;8.54;58.27
4273;BME280;63887;53.656;9.810;2023-03-26T09:26:59;100374.81;;;8.72;57.03
4273;BME280;63887;53.656;9.810;2023-03-26T09:30:05;100376.97;;;8.81;60.83
4273;BME280;63887;53.656;9.810;2023-03-26T09:33:08;100376.72;;;9.17;56.58
4273;BME280;63887;53.656;9.810;2023-03-26T09:36:04;100375.03;;;9.16;57.20
4273;BME280;63887;53.656;9.810;2023-03-26T09:38:41;100378.22;;;9.37;59.69
4273;BME280;63887;53.656;9.810;2023-03-26T09:41:13;100378.09;;;9.24;54.32
4273;BME280;63887;53.656;9.810;2023-03-26T09:46:54;100375.91;;;8.68;57.32
4273;BME280;63887;53.656;9.810;2023-03-26T09:49:38;100373.31;;;8.68;55.15
4273;BME280;63887;53.656;9.810;2023-03-26T09:52:19;100384.91;;;8.95;55.11
4273;BME280;63887;53.656;9.810;2023-03-26T09:55:17;100383.97;;;8.96;58.78
4273;BME280;63887;53.656;9.810;2023-03-26T09:57:58;100384.91;;;9.27;57.57
4273;BME280;63887;53.656;9.810;2023-03-26T10:00:30;100386.16;;;8.88;58.88
4273;BME280;63887;53.656;9.810;2023-03-26T10:03:18;100403.72;;;9.02;59.40
4273;BME280;63887;53.656;9.810;2023-03-26T10:06:04;100404.47;;;9.04;56.02
4273;BME280;63887;53.656;9.810;2023-03-26T10:08:48;100399.44;;;8.68;59.37
4273;BME280;63887;53.656;9.810;2023-03-26T10:11:22;100402.84;;;8.86;54.91
4273;BME280;63887;53.656;9.810;2023-03-26T10:13:58;100398.72;;;8.82;54.90
4273;BME280;63887;53.656;9.810;2023-03-26T10:16:33;100399.63;;;8.65;56.06
4273;BME280;63887;53.656;9.810;2023-03-26T10:19:18;100395.53;;;8.59;55.06
4273;BME280;63887;53.656;9.810;2023-03-26T10:21:54;100394.59;;;8.60;56.10
4273;BME280;63887;53.656;9.810;2023-03-26T10:24:47;100396.09;;;8.82;54.57
4273;BME280;63887;53.656;9.810;2023-03-26T10:27:35;100398.72;;;8.82;57.23
4273;BME280;63887;53.656;9.810;2023-03-26T10:30:27;100401.72;;;8.74;56.21
4273;BME280;63887;53.656;9.810;2023-03-26T10:33:08;100394.25;;;8.33;56.13
4273;BME280;63887;53.656;9.810;2023-03-26T10:35:47;100396.56;;;8.22;59.68
4273;BME280;63887;53.656;9.810;2023-03-26T10:38:23;100396.66;;;8.38;57.76
4273;BME280;63887;53.656;9.810;2023-03-26T10:40:58;100392.00;;;8.60;56.17
4273;BME280;63887;53.656;9.810;2023-03-26T10:43:53;100395.03;;;8.53;57.95
4273;BME280;63887;53.656;9.810;2023-03-26T10:46:46;100390.06;;;8.97;53.98
4273;BME280;63887;53.656;9.810;2023-03-26T10:49:31;100399.69;;;9.12;56.78
4273;BME280;63887;53.656;9.810;2023-03-26T10:52:05;100406.59;;;9.13;56.74
4273;BME280;63887;53.656;9.810;2023-03-26T10:54:41;100401.16;;;8.85;58.09
4273;BME280;63887;53.656;9.810;2023-03-26T10:57:20;100408.16;;;8.84;57.40
4273;BME280;63887;53.656;9.810;2023-03-26T10:59:50;100407.53;;;8.96;53.65
4273;BME280;63887;53.656;9.810;2023-03-26T11:02:25;100392.91;;;8.59;57.59
4273;BME280;63887;53.656;9.810;2023-03-26T11:04:58;100403.63;;;9.04;53.07
4273;BME280;63887;53.656;9.810;2023-03-26T11:07:33;100383.88;;;8.49;55.58
4273;BME280;63887;53.656;9.810;2023-03-26T11:10:06;100396.59;;;8.88;52.35
4273;BME280;63887;53.656;9.810;2023-03-26T11:12:39;100398.41;;;9.19;52.17
4273;BME280;63887;53.656;9.810;2023-03-26T11:15:17;100391.31;;;9.06;52.58
4273;BME280;63887;53.656;9.810;2023-03-26T11:17:56;100401.75;;;8.90;53.37
4273;BME280;63887;53.656;9.810;2023-03-26T11:20:31;100400.41;;;8.83;54.26
4273;BME280;63887;53.656;9.810;2023-03-26T11:23:10;100400.13;;;8.72;55.10
4273;BME280;63887;53.656;9.810;2023-03-26T11:25:55;100394.59;;;8.60;55.00
4273;BME280;63887;53.656;9.810;2023-03-26T11:28:32;100395.81;;;8.71;57.21
4273;BME280;63887;53.656;9.810;2023-03-26T11:31:07;100394.84;;;9.05;56.75
4273;BME280;63887;53.656;9.810;2023-03-26T11:33:43;100390.34;;;9.24;55.16
4273;BME280;63887;53.656;9.810;2023-03-26T11:36:12;100393.44;;;9.15;55.16
4273;BME280;63887;53.656;9.810;2023-03-26T11:38:44;100390.38;;;9.70;52.20
4273;BME280;63887;53.656;9.810;2023-03-26T11:41:14;100396.81;;;9.33;51.25
4273;BME280;63887;53.656;9.810;2023-03-26T11:43:43;100405.31;;;8.89;52.95
4273;BME280;63887;53.656;9.810;2023-03-26T11:46:15;100405.25;;;8.73;54.29
4273;BME280;63887;53.656;9.810;2023-03-26T11:48:45;100400.47;;;8.65;55.30
4273;BME280;63887;53.656;9.810;2023-03-26T11:51:17;100399.38;;;8.70;55.47
4273;BME280;63887;53.656;9.810;2023-03-26T11:53:46;100387.53;;;8.95;54.79
4273;BME280;63887;53.656;9.810;2023-03-26T11:56:17;100389.84;;;8.69;58.89
4273;BME280;63887;53.656;9.810;2023-03-26T11:58:51;100387.63;;;8.77;57.85
4273;BME280;63887;53.656;9.810;2023-03-26T12:01:24;100392.75;;;8.95;54.67
4273;BME280;63887;53.656;9.810;2023-03-26T12:03:55;100395.63;;;9.07;52.09
4273;BME280;63887;53.656;9.810;2023-03-26T12:06:24;100395.03;;;9.02;52.88
4273;BME280;63887;53.656;9.810;2023-03-26T12:08:54;100386.06;;;8.90;52.29
4273;BME280;63887;53.656;9.810;2023-03-26T12:11:24;100382.09;;;8.83;51.64
4273;BME280;63887;53.656;9.810;2023-03-26T12:13:55;100384.53;;;8.70;53.29
4273;BME280;63887;53.656;9.810;2023-03-26T12:16:23;100385.44;;;8.69;52.61
4273;BME280;63887;53.656;9.810;2023-03-26T12:18:58;100380.72;;;8.76;51.93
4273;BME280;63887;53.656;9.810;2023-03-26T12:21:25;100385.78;;;8.46;54.70
4273;BME280;63887;53.656;9.810;2023-03-26T12:23:58;100379.09;;;8.57;54.22
4273;BME280;63887;53.656;9.810;2023-03-26T12:26:33;100378.88;;;8.78;53.36
4273;BME280;63887;53.656;9.810;2023-03-26T12:29:06;100379.66;;;8.80;53.68
4273;BME280;63887;53.656;9.810;2023-03-26T12:31:40;100376.84;;;8.67;56.21
4273;BME280;63887;53.656;9.810;2023-03-26T12:34:13;100373.53;;;8.96;52.68
4273;BME280;63887;53.656;9.810;2023-03-26T12:36:47;100375.03;;;9.01;53.09
4273;BME280;63887;53.656;9.810;2023-03-26T12:39:31;100380.53;;;8.96;51.82
4273;BME280;63887;53.656;9.810;2023-03-26T12:41:59;100380.63;;;8.77;52.13
4273;BME280;63887;53.656;9.810;2023-03-26T12:44:28;100374.94;;;8.53;53.79
4273;BME280;63887;53.656;9.810;2023-03-26T12:47:07;100382.28;;;8.62;53.27
4273;BME280;63887;53.656;9.810;2023-03-26T12:49:34;100379.09;;;8.57;54.31
4273;BME280;63887;53.656;9.810;2023-03-26T12:52:08;100385.38;;;8.86;53.08
4273;BME280;63887;53.656;9.810;2023-03-26T12:54:50;100378.97;;;8.92;52.78
4273;BME280;63887;53.656;9.810;2023-03-26T12:57:21;100384.06;;;8.95;52.59
4273;BME280;63887;53.656;9.810;2023-03-26T12:59:58;100377.03;;;8.80;53.97
4273;BME280;63887;53.656;9.810;2023-03-26T13:02:50;100370.78;;;8.82;53.82
4273;BME280;63887;53.656;9.810;2023-03-26T13:05:43;100380.53;;;8.96;53.72
4273;BME280;63887;53.656;9.810;2023-03-26T13:08:32;100381.84;;;8.87;57.13
4273;BME280;63887;53.656;9.810;2023-03-26T13:11:08;100381.97;;;9.17;53.74
4273;BME280;63887;53.656;9.810;2023-03-26T13:13:48;100373.25;;;9.17;53.03
4273;BME280;63887;53.656;9.810;2023-03-26T13:16:26;100374.84;;;9.04;53.24
4273;BME280;63887;53.656;9.810;2023-03-26T13:18:58;100376.81;;;9.00;52.33
4273;BME280;63887;53.656;9.810;2023-03-26T13:21:31;100379.91;;;8.91;51.52
4273;BME280;63887;53.656;9.810;2023-03-26T13:24:10;100378.22;;;8.90;53.78
4273;BME280;63887;53.656;9.810;2023-03-26T13:26:55;100371.16;;;9.08;52.79
4273;BME280;63887;53.656;9.810;2023-03-26T13:29:31;100372.06;;;8.91;53.26
4273;BME280;63887;53.656;9.810;2023-03-26T13:32:07;100370.72;;;8.84;55.00
4273;BME280;63887;53.656;9.810;2023-03-26T13:34:54;100366.75;;;8.92;54.17
4273;BME280;63887;53.656;9.810;2023-03-26T13:37:26;100361.94;;;8.85;55.88
4273;BME280;63887;53.656;9.810;2023-03-26T13:40:03;100375.56;;;9.23;53.74
4273;BME280;63887;53.656;9.810;2023-03-26T13:42:45;100363.56;;;9.19;50.29
4273;BME280;63887;53.656;9.810;2023-03-26T13:45:25;100367.09;;;9.02;53.33
4273;BME280;63887;53.656;9.810;2023-03-26T13:47:57;100365.41;;;9.17;52.60
4273;BME280;63887;53.656;9.810;2023-03-26T13:50:26;100355.38;;;9.25;52.50
4273;BME280;63887;53.656;9.810;2023-03-26T13:52:58;100355.09;;;9.45;53.49
4273;BME280;63887;53.656;9.810;2023-03-26T13:55:27;100363.63;;;9.33;51.99
4273;BME280;63887;53.656;9.810;2023-03-26T13:58:01;100367.75;;;9.37;52.06